Date,TemperatureHighF,TemperatureAvgF,TemperatureLowF,DewpointHighF,DewpointAvgF,DewpointLowF,HumidityHigh,HumidityAvg,HumidityLow,PressureMaxIn,PressureMinIn,WindSpeedMaxMPH,WindSpeedAvgMPH,GustSpeedMaxMPH,PrecipitationSumIn
2013-1-1,35.8,32.4,27.9,33.9,28.2,-99.9,97,87,78,30.15,30.04,2,-8,8,0.09
2013-1-2,35.3,27.2,19.5,25.4,22.3,18.3,96,83,57,30.25,30.11,4,0,7,0.03
2013-1-3,31.3,19.1,14.9,26.4,17.1,13.1,95,92,81,30.31,30.22,0,0,7,0.04
2013-1-4,40.9,33.5,23.7,28.8,24.9,21.7,92,72,53,30.37,30.29,7,2,11,0.06
2013-1-5,44.6,31.1,19.0,32.4,25.7,17.6,95,82,52,30.39,30.18,6,0,8,0.01
2013-1-6,42.3,34.8,28.4,35.3,29.5,22.9,95,81,73,30.36,30.04,5,1,11,0.01
2013-1-7,43.5,29.6,19.3,29.4,24.4,17.9,95,82,54,30.49,30.26,4,0,8,0.00
2013-1-8,54.9,31.8,19.6,36.9,25.5,-99.9,96,83,48,30.35,30.24,7,1,10,0.00
2013-1-9,52.8,27.1,26.9,48.1,-0.5,-99.9,99,69,74,30.52,30.24,4,1,8,0.04
2013-1-10,43.9,33.9,24.6,42.4,29.5,-99.9,99,93,87,30.52,30.10,1,0,2,0.19
2013-1-11,65.2,28.5,39.9,54.7,-12.7,-99.9,100,56,66,30.18,29.89,7,1,11,0.44
2013-1-12,66.4,36.2,39.1,63.1,5.4,-99.9,100,67,88,30.02,29.80,5,1,10,0.00
2013-1-13,67.0,26.6,39.3,62.4,-27.3,-99.9,95,43,83,30.11,29.74,5,2,10,1.01
2013-1-14,39.5,25.3,26.2,31.2,6.4,-99.9,89,70,74,30.45,30.00,3,1,9,0.00
2013-1-15,33.5,25.8,23.4,28.9,6.5,-99.9,91,69,75,30.38,30.08,5,1,8,0.00
2013-1-16,37.8,33.3,31.2,31.7,29.9,27.8,93,87,74,30.14,29.98,3,0,4,0.03
2013-1-17,45.0,30.3,26.8,33.7,18.8,-99.9,95,79,57,30.38,30.08,4,0,8,0.01
2013-1-18,41.9,30.9,18.2,26.1,13.2,-99.9,96,63,47,30.55,30.26,5,1,9,0.00
2013-1-19,56.5,45.6,33.1,30.7,28.2,25.2,75,53,34,30.32,29.93,11,5,15,0.00
2013-1-20,39.3,34.0,27.2,18.6,15.2,11.6,66,47,33,30.22,30.13,4,1,10,0.00
2013-1-21,29.9,24.0,15.0,19.3,11.1,-99.9,74,59,45,30.27,30.10,7,2,17,0.00
2013-1-22,22.2,16.6,7.8,5.4,2.3,-0.4,78,54,38,30.43,30.24,6,2,12,0.00
2013-1-23,24.6,19.1,10.1,13.1,7.5,2.3,83,61,47,30.39,30.12,5,1,8,0.00
2013-1-24,26.8,21.3,14.4,14.8,7.1,1.2,76,55,34,30.60,30.12,4,1,13,0.00
2013-1-25,23.5,22.3,21.0,18.6,11.0,7.0,85,62,53,30.51,30.13,2,1,4,0.00
2013-1-26,36.0,27.9,18.3,22.6,19.9,16.1,94,73,54,30.46,30.32,4,1,5,0.01
2013-1-27,40.2,27.9,14.1,35.4,23.1,12.2,96,83,58,30.46,30.19,2,0,5,0.19
2013-1-28,53.2,47.8,36.8,51.2,46.0,33.1,99,94,80,30.24,30.03,6,2,14,0.04
2013-1-29,68.2,58.4,44.7,59.5,54.1,44.2,100,86,69,30.06,29.58,9,2,14,0.04
2013-1-30,70.3,54.7,34.5,61.1,48.0,-99.9,98,82,71,29.69,29.26,10,4,18,0.65
2013-1-31,40.1,28.8,21.1,26.4,23.5,15.3,90,81,71,30.04,29.40,7,3,18,0.65
2013-2-1,28.8,11.6,8.1,18.2,-11.3,-99.9,100,60,56,30.45,29.92,6,2,14,0.00
2013-2-2,35.2,22.7,10.0,28.4,7.9,-99.9,90,75,69,30.40,30.02,7,1,10,0.00
2013-2-3,30.6,24.3,15.5,25.4,19.3,13.6,92,81,68,30.15,29.96,3,1,10,0.00
2013-2-4,36.0,25.1,13.0,32.2,22.1,11.0,97,89,67,30.15,29.84,4,0,10,0.05
2013-2-5,39.8,34.7,31.7,35.2,31.8,28.9,98,90,75,30.01,29.84,3,0,10,0.14
2013-2-6,40.1,34.7,27.6,33.9,30.3,25.6,95,84,69,30.26,29.96,2,0,10,0.14
2013-2-7,64.2,40.9,28.7,41.4,30.5,-99.9,97,77,38,30.21,29.81,4,0,10,0.00
2013-2-8,51.3,40.4,36.5,47.0,35.0,-99.9,100,83,68,30.18,29.78,3,1,10,0.06
2013-2-10,57.6,37.9,46.8,45.7,4.2,-99.9,87,52,39,30.06,29.80,7,3,15,0.03
2013-2-11,54.3,44.8,35.5,50.8,26.4,-99.9,94,63,45,30.05,29.77,11,4,18,0.00
2013-2-12,52.4,27.9,24.3,31.8,2.0,-99.9,97,63,38,30.14,29.91,5,1,7,0.00
2013-2-13,38.6,31.7,25.1,33.8,29.2,24.1,97,90,80,29.95,29.76,3,0,3,0.05
2013-2-14,55.2,31.4,24.6,39.6,15.4,-99.9,98,76,49,30.00,29.83,9,2,14,0.02
2013-2-15,44.7,33.6,24.7,34.5,28.0,-99.9,96,82,57,30.16,29.94,5,1,7,0.00
2013-2-16,34.2,24.7,17.1,25.3,16.9,-99.9,95,75,48,30.16,30.05,5,1,9,0.00
2013-2-17,33.9,23.2,11.9,16.3,11.6,6.5,94,64,32,30.26,30.12,5,1,8,0.00
2013-2-18,61.4,40.1,15.9,40.6,26.5,11.9,93,63,38,30.24,29.76,10,3,20,0.02
2013-2-19,55.4,35.7,26.7,42.2,27.8,15.6,92,73,59,30.13,29.67,12,4,15,0.21
2013-2-20,32.7,24.4,20.6,18.0,9.2,-99.9,81,61,47,30.31,30.09,5,2,9,0.00
2013-2-21,34.7,20.2,16.8,23.0,-6.4,-99.9,89,61,62,30.37,30.16,6,1,11,0.00
2013-2-22,48.1,38.9,31.6,42.1,35.5,-99.9,98,90,79,29.99,29.92,5,1,10,0.03
2013-2-23,48.5,33.3,28.9,33.2,18.8,-99.9,98,73,45,30.00,29.89,5,1,9,0.00
2013-2-24,45.9,28.5,24.8,29.2,12.3,-99.9,96,71,47,30.16,29.92,6,1,11,0.00
2013-2-25,49.5,29.6,19.5,29.4,9.2,-99.9,96,63,43,30.19,29.90,6,1,9,0.00
2013-2-26,52.6,44.0,37.2,50.7,39.3,25.1,96,84,55,29.90,29.34,7,1,9,0.48
2013-2-27,44.5,38.8,34.8,40.4,35.3,31.4,93,87,76,29.73,29.49,6,3,14,0.05
2013-2-28,38.6,36.1,33.7,34.9,32.7,30.1,96,88,83,29.95,29.70,4,2,8,0.01
2013-3-1,37.7,35.2,32.2,35.9,33.5,27.0,97,94,81,30.03,29.92,3,0,5,0.11
2013-3-2,33.2,29.7,28.1,28.0,24.1,22.1,87,79,72,30.09,30.01,3,1,6,0.00
2013-3-3,34.0,29.1,20.5,26.7,23.0,18.5,92,78,63,30.11,30.05,3,0,4,0.00
2013-3-4,46.2,28.7,14.5,31.3,10.8,-99.9,94,65,37,30.19,30.00,4,0,7,0.01
2013-3-5,42.1,38.0,31.8,38.9,33.1,25.9,96,83,67,30.02,29.56,3,1,5,0.39
2013-3-6,35.7,32.0,30.0,32.2,29.9,27.7,97,92,84,30.26,29.63,3,0,5,0.03
2013-3-7,39.4,34.2,30.7,35.1,31.8,29.7,97,91,76,30.39,30.25,2,0,3,0.25
2013-3-8,48.0,34.4,24.3,34.9,28.0,23.3,98,80,45,30.48,30.37,4,1,8,0.05
2013-3-9,60.9,41.0,23.5,41.1,31.5,-99.9,97,75,38,30.41,30.03,3,0,5,0.00
2013-3-10,71.8,58.0,42.2,49.0,38.6,34.4,88,53,26,30.08,29.81,7,2,12,0.04
2013-3-11,55.4,48.4,39.2,54.0,45.0,-99.9,99,90,73,29.85,29.59,8,2,13,1.41
2013-3-12,47.5,39.7,34.4,35.3,31.6,29.1,86,73,53,30.05,29.85,6,2,13,0.00
2013-3-13,37.6,30.2,26.4,33.5,19.1,-99.9,97,74,59,30.33,30.01,5,2,12,0.03
2013-3-14,26.3,22.5,19.4,23.0,20.6,18.0,95,92,87,30.37,30.33,0,0,2,0.00
2013-3-15,56.0,42.7,25.5,41.5,28.4,-99.9,97,69,55,30.05,29.78,5,1,7,0.00
2013-3-16,66.8,48.3,38.9,55.4,40.7,-99.9,99,80,58,30.00,29.61,5,2,9,0.16
2013-3-17,40.2,36.3,33.7,35.1,32.0,-99.9,95,87,79,30.14,29.98,4,1,7,0.24
2013-3-18,51.8,42.9,35.9,49.5,40.8,34.3,97,92,77,29.98,29.62,5,1,9,0.88
2013-3-19,48.1,38.2,30.9,36.7,25.8,15.0,97,65,28,30.11,29.83,9,3,13,0.00
2013-3-20,42.5,30.1,23.2,25.8,10.7,-99.9,90,57,39,30.11,29.94,6,2,17,0.00
2013-3-21,35.5,24.0,20.6,17.7,2.2,-99.9,76,54,37,30.05,29.95,6,1,11,0.00
2013-3-22,46.9,26.9,16.4,23.6,4.6,-99.9,94,59,32,30.10,29.99,5,1,11,0.00
2013-3-23,55.0,40.1,26.7,30.4,26.2,21.8,87,62,30,30.07,29.86,4,1,7,0.00
2013-3-24,41.5,36.9,32.6,34.7,30.2,25.3,97,78,53,29.87,29.39,7,1,9,0.26
2013-3-25,37.4,34.4,31.7,34.6,32.4,29.7,98,92,87,29.94,29.41,4,1,10,0.22
2013-3-26,42.5,36.2,32.7,34.9,32.3,29.3,97,86,62,30.17,29.94,3,1,7,0.04
2013-3-27,47.3,40.5,28.6,33.6,22.8,-99.9,95,58,47,30.31,30.26,4,2,9,0.00
2013-3-28,46.0,36.5,29.8,31.0,28.5,26.8,90,73,55,30.31,30.27,0,0,4,0.00
2013-3-29,58.2,40.8,24.6,36.3,29.8,23.6,97,70,33,30.33,30.18,5,1,7,0.00
2013-3-30,62.9,43.9,27.8,39.2,28.6,-99.9,97,67,33,30.24,29.93,5,1,8,0.00
2013-3-31,59.1,47.0,38.3,49.7,41.4,-99.9,96,84,58,29.93,29.76,6,1,8,0.04
2013-4-1,51.5,40.4,29.8,36.8,29.8,20.8,98,69,34,30.12,29.78,7,1,11,0.00
2013-4-2,50.2,35.1,21.9,28.1,19.2,-99.9,94,59,29,30.26,30.11,6,1,13,0.00
2013-4-3,51.3,36.1,21.0,29.7,20.7,15.3,95,60,26,30.41,30.26,5,1,10,0.00
2013-4-4,56.3,40.0,29.1,31.3,23.2,-99.9,88,59,26,30.33,29.99,3,1,7,0.00
2013-4-5,65.6,44.2,25.5,39.5,29.0,-99.9,97,63,26,30.12,29.98,5,1,11,0.00
2013-4-6,70.7,48.9,29.9,42.5,31.8,-99.9,97,60,29,30.20,29.89,6,1,8,0.00
2013-4-7,73.6,60.8,49.5,57.0,45.2,38.3,97,59,41,29.96,29.86,8,2,15,0.15
2013-4-8,74.3,58.5,50.1,57.6,47.8,-99.9,100,78,51,29.97,29.85,10,2,16,0.01
2013-4-9,82.5,65.8,49.8,62.7,55.9,48.9,99,74,43,30.02,29.89,10,2,15,0.00
2013-4-10,85.2,72.7,60.7,66.3,61.3,57.3,91,69,47,29.94,29.72,10,3,13,0.00
2013-4-11,68.5,62.7,58.1,65.8,60.5,56.9,98,93,82,29.77,29.50,3,0,10,0.67
2013-4-12,59.4,49.0,37.4,58.5,42.6,35.0,98,80,56,29.91,29.49,8,2,13,0.10
2013-4-13,62.4,46.0,32.4,41.3,36.0,31.7,98,73,37,30.01,29.91,8,3,14,0.00
2013-4-14,73.9,64.7,53.3,71.3,47.1,41.9,100,55,33,30.01,29.84,4,1,8,0.00
2013-4-15,70.3,60.4,51.1,57.0,52.9,48.0,96,77,59,29.97,29.88,4,1,7,0.00
2013-4-16,83.8,63.4,48.9,68.4,58.2,48.3,100,85,56,30.14,29.93,7,2,12,0.06
2013-4-17,79.9,66.4,57.6,67.5,61.9,57.0,99,87,61,30.15,29.92,5,1,8,0.30
2013-4-18,84.5,73.4,57.8,65.9,59.7,54.6,98,66,40,29.92,29.57,10,4,18,0.00
2013-4-19,74.8,41.7,38.5,62.3,12.0,-99.9,94,55,52,29.99,29.40,7,3,14,0.86
2013-4-20,55.1,43.0,33.8,36.4,30.5,-99.9,97,67,37,30.39,29.99,6,2,14,0.00
2013-4-21,44.9,34.2,31.3,32.8,30.4,28.5,93,86,60,30.51,30.39,2,0,14,0.00
2013-4-22,74.3,51.5,33.1,49.3,19.3,-99.9,98,45,33,30.31,30.10,4,1,5,0.00
2013-4-23,72.6,53.5,39.1,56.1,37.8,-99.9,99,69,51,30.12,29.87,6,1,10,0.00
2013-4-24,41.4,37.7,36.0,39.3,36.5,35.2,97,95,92,30.22,30.15,0,0,2,0.77
2013-4-25,62.1,45.8,32.5,45.3,36.0,-99.9,98,75,40,30.37,30.22,6,2,12,0.00
2013-4-26,64.8,48.2,32.1,44.2,35.5,-99.9,98,68,30,30.45,30.32,3,0,7,0.00
2013-4-27,64.5,50.6,37.7,52.7,37.3,-99.9,98,72,46,30.33,30.03,3,0,9,0.00
2013-4-28,70.9,60.2,53.6,63.0,56.8,52.6,97,89,68,30.03,29.79,5,1,7,0.13
2013-4-29,67.7,57.8,49.6,58.9,53.6,-99.9,99,89,70,29.97,29.86,4,0,5,0.01
2013-4-30,81.4,60.6,46.1,61.7,51.4,-99.9,99,78,40,30.03,29.94,3,1,5,0.00
2013-5-1,86.4,60.2,48.7,65.6,38.4,-99.9,100,64,38,30.13,30.02,4,1,7,0.00
2013-5-2,77.2,59.6,53.5,61.7,41.9,-99.9,100,69,49,30.17,30.05,3,1,7,0.00
2013-5-3,78.9,66.3,54.6,62.8,54.6,43.1,99,69,43,30.05,29.91,4,1,9,0.00
2013-5-4,76.6,65.0,57.4,55.3,48.7,41.7,84,57,38,29.96,29.86,3,1,8,0.00
2013-5-5,57.2,53.5,51.4,53.7,52.1,50.0,98,95,84,29.96,29.88,2,0,4,2.19
2013-5-6,64.0,59.2,52.5,58.3,56.0,52.0,99,89,78,29.92,29.85,6,1,8,0.78
2013-5-7,75.7,61.6,52.4,63.3,57.4,52.1,100,87,55,29.94,29.86,3,0,7,0.02
2013-5-8,79.6,62.5,51.6,66.8,58.2,51.3,100,88,47,29.98,29.89,4,0,8,0.36
2013-5-9,83.0,66.2,53.3,69.8,60.3,53.0,100,84,42,29.99,29.90,3,0,6,0.00
2013-5-10,70.8,63.1,58.0,65.9,61.8,57.7,100,96,81,29.91,29.78,9,0,15,0.70
2013-5-11,61.7,55.7,46.4,61.6,52.8,43.4,100,90,72,29.98,29.81,2,0,7,0.13
2013-5-12,61.3,48.2,38.7,46.7,36.9,-99.9,99,74,37,30.11,29.98,4,1,9,0.01
2013-5-13,65.2,47.5,37.1,46.5,31.2,-99.9,99,67,31,30.16,30.09,4,1,7,0.00
2013-5-14,82.9,58.4,38.3,61.8,45.7,-99.9,98,72,42,30.14,29.80,6,1,10,0.00
2013-5-15,89.6,74.2,59.1,66.1,61.0,56.7,98,67,37,29.88,29.77,7,2,11,0.00
2013-5-16,80.3,65.7,57.4,69.2,62.2,56.6,99,89,58,29.95,29.82,3,0,7,0.11
2013-5-17,84.3,67.6,58.8,71.9,64.4,58.5,100,91,59,30.02,29.95,4,0,5,0.19
2013-5-18,81.2,69.2,63.3,73.4,66.8,63.0,100,93,67,30.02,29.91,3,0,5,0.71
2013-5-20,87.7,78.1,67.7,75.4,71.3,67.2,99,81,61,29.93,29.85,4,1,8,0.00
2013-5-21,86.8,73.1,65.0,73.4,67.7,64.7,100,85,54,29.93,29.76,6,1,8,0.01
2013-5-22,82.5,70.1,61.1,69.5,65.0,60.5,100,85,59,29.82,29.69,5,1,13,0.28
2013-5-23,74.4,65.1,55.6,65.5,60.4,48.8,100,86,60,30.03,29.76,5,1,10,0.04
2013-5-24,67.9,54.1,46.2,51.6,39.3,-99.9,96,66,41,30.29,30.03,4,1,8,0.00
2013-5-25,68.3,55.2,42.7,55.5,47.5,42.1,99,78,45,30.37,30.19,2,0,3,0.00
2013-5-26,73.9,61.8,52.9,58.7,52.7,48.6,98,75,43,30.28,30.13,2,0,6,0.00
2013-5-27,85.7,67.7,54.3,67.4,57.9,51.3,98,74,43,30.17,29.92,5,1,11,0.23
2013-5-28,84.2,76.1,64.1,70.0,65.8,62.7,99,72,51,30.00,29.89,5,2,12,0.01
2013-5-29,88.5,74.3,61.7,70.4,65.4,60.8,99,77,47,30.05,29.94,6,1,10,0.00
2013-5-30,89.5,75.2,61.5,73.6,67.6,61.3,100,80,53,30.10,29.95,5,1,7,0.00
2013-5-31,85.6,71.3,62.8,73.0,67.9,62.5,100,90,64,30.02,29.90,5,1,11,0.74
2013-6-1,83.3,73.7,66.2,73.4,69.6,66.2,100,88,66,29.93,29.74,6,1,12,0.62
2013-6-2,82.1,70.9,63.2,70.7,65.5,61.5,100,85,52,29.88,29.78,3,1,6,0.00
2013-6-3,73.6,65.0,54.6,63.2,56.1,-99.9,97,75,52,30.02,29.87,3,1,6,0.00
2013-6-4,78.9,59.9,50.8,57.9,42.1,-99.9,100,65,31,30.11,30.01,3,1,5,0.00
2013-6-5,85.5,62.3,52.1,70.3,46.0,-99.9,100,73,49,30.05,29.81,2,0,4,0.00
2013-6-6,77.0,67.3,61.8,71.3,65.6,61.5,100,95,77,29.84,29.73,2,0,4,0.52
2013-6-7,77.9,66.5,60.2,67.1,62.0,58.9,100,86,57,29.84,29.74,3,1,7,0.00
2013-6-8,81.5,68.2,57.0,70.7,62.4,56.2,99,83,59,29.98,29.84,3,0,4,0.00
2013-6-9,84.0,71.0,59.5,72.1,65.6,59.2,100,84,56,30.03,29.87,3,0,6,0.00
2013-6-10,81.5,71.4,64.1,71.1,67.5,63.7,99,88,66,29.87,29.74,4,1,7,0.86
2013-6-11,87.4,73.3,61.1,72.8,67.2,61.1,100,84,51,29.93,29.83,3,1,6,0.00
2013-6-12,92.9,77.4,66.4,80.6,73.4,66.3,100,89,61,29.89,29.69,4,1,7,0.00
2013-6-13,81.6,74.5,60.9,74.8,69.0,59.8,98,84,56,29.87,29.55,4,1,10,0.47
2013-6-14,64.2,57.8,55.4,61.0,57.0,54.8,100,97,88,29.98,29.87,1,0,3,0.00
2013-6-16,73.4,70.2,67.0,72.5,69.6,66.7,100,98,96,29.93,29.91,0,0,0,0.16
2013-6-17,89.3,73.0,64.9,75.7,69.3,64.8,100,90,58,29.94,29.83,3,0,5,0.00
2013-6-18,83.2,69.5,64.6,72.2,66.6,64.0,99,91,65,29.93,29.81,2,0,3,0.22
2013-6-19,83.2,71.5,60.3,67.4,62.7,58.7,100,76,45,30.07,29.93,2,1,4,0.01
2013-6-20,88.2,70.0,56.8,71.1,62.6,56.4,100,81,41,30.16,30.08,3,0,6,0.00
2013-6-21,90.2,74.4,58.6,74.0,66.7,58.4,100,80,47,30.17,30.07,2,0,5,0.00
2013-6-22,91.4,76.0,64.5,77.1,70.3,64.5,100,85,56,30.14,30.00,4,1,6,0.00
2013-6-23,90.3,75.1,64.2,76.8,69.2,63.9,100,84,53,30.10,30.00,3,1,5,0.00
2013-6-24,89.1,75.7,64.3,76.9,70.6,64.2,100,86,63,30.09,29.97,4,1,6,0.00
2013-6-25,92.4,78.9,66.2,79.9,73.3,65.9,100,85,60,30.02,29.84,4,1,7,0.00
2013-6-26,87.2,73.9,68.0,78.8,71.2,67.7,100,92,73,29.91,29.73,6,1,9,1.79
2013-6-27,88.3,74.1,66.9,78.6,71.9,66.8,100,94,65,29.76,29.65,3,0,5,0.00
2013-6-28,87.8,75.0,64.6,74.2,68.8,63.0,100,84,49,29.66,29.53,4,1,8,0.04
2013-6-29,78.2,68.9,63.0,72.7,67.4,62.9,100,95,72,29.62,29.53,3,0,6,0.97
2013-6-30,83.6,70.3,62.7,72.6,67.1,62.7,100,91,59,29.77,29.60,2,0,3,0.00
2013-7-1,79.9,69.4,63.9,74.1,66.2,-99.9,100,93,77,29.87,29.75,2,-11,4,0.56
2013-7-2,85.0,71.9,64.3,74.4,68.9,64.3,100,91,62,29.97,29.86,3,0,6,0.01
2013-7-3,83.2,73.4,66.3,75.9,70.9,66.3,100,93,71,30.07,29.97,3,0,4,0.00
2013-7-4,72.6,70.3,68.6,72.4,70.2,68.6,100,100,98,30.11,30.02,2,0,4,2.18
2013-7-5,79.2,71.5,66.6,75.8,70.9,66.5,100,98,88,30.10,30.04,2,0,4,0.33
2013-7-6,79.1,71.2,67.0,78.5,70.9,67.0,100,99,90,30.08,30.00,4,0,6,2.25
2013-7-7,86.1,73.0,65.9,75.6,69.9,65.9,100,91,63,30.08,29.98,3,0,6,0.00
2013-7-8,89.0,75.1,64.2,80.1,71.5,64.2,100,90,64,30.09,29.99,3,1,5,0.01
2013-7-9,91.4,78.8,71.6,83.7,76.5,71.6,100,93,68,30.04,29.92,4,1,6,0.51
2013-7-10,92.3,78.3,70.9,83.0,76.3,70.9,100,94,72,29.95,29.78,4,1,8,0.51
2013-7-11,85.4,73.1,63.3,75.7,70.1,62.9,100,91,62,29.97,29.88,2,0,5,0.51
2013-7-12,81.6,68.4,58.1,69.2,62.9,58.1,100,85,51,30.05,29.97,3,1,6,0.01
2013-7-13,85.9,72.9,62.7,73.1,67.7,62.7,100,85,58,30.08,30.00,3,1,8,0.01
2013-7-14,92.8,77.2,65.0,81.7,72.8,65.0,100,88,63,30.17,30.07,4,0,4,0.53
2013-7-15,94.4,79.2,69.2,81.0,74.6,69.2,100,88,53,30.25,30.16,2,0,4,0.53
2013-7-16,96.1,80.4,69.0,82.5,75.0,69.0,100,86,53,30.28,30.19,2,0,4,0.00
2013-7-17,94.5,81.0,70.7,83.3,76.7,70.7,100,88,60,30.26,30.13,2,0,5,0.00
2013-7-18,96.4,82.3,72.2,83.8,76.6,72.2,100,85,54,30.15,29.96,3,0,3,0.00
2013-7-19,93.5,79.6,73.0,81.8,76.6,73.0,100,92,64,30.00,29.85,3,1,8,0.00
2013-7-20,91.5,77.6,70.2,79.4,74.0,70.2,100,90,61,29.88,29.78,5,1,7,0.01
2013-7-21,91.8,77.3,69.4,79.4,73.7,69.4,100,90,53,29.91,29.81,2,0,4,0.07
2013-7-22,73.9,72.3,70.9,73.9,72.3,70.9,100,100,98,29.86,29.72,1,0,8,0.38
2013-7-23,89.4,75.9,67.3,79.8,73.5,67.3,100,93,69,29.78,29.68,5,1,8,0.06
2013-7-24,81.4,69.0,59.2,72.5,65.3,59.2,100,89,55,29.94,29.76,3,0,8,0.06
2013-7-25,80.8,67.0,56.1,65.4,60.8,56.1,100,83,48,30.04,29.95,3,0,8,0.00
2013-7-26,83.5,68.8,57.2,71.2,63.5,57.2,100,86,52,30.05,29.93,2,0,8,0.00
2013-7-27,77.4,68.2,59.9,70.5,66.7,59.9,100,95,73,29.93,29.80,3,0,8,0.17
2013-7-28,76.6,63.8,52.9,62.6,56.9,52.9,100,81,49,30.02,29.87,4,1,8,0.01
2013-7-29,82.3,65.3,53.1,67.7,59.4,53.1,100,84,49,30.15,30.03,4,1,8,0.00
2013-7-30,82.8,67.3,56.0,71.6,63.9,56.0,100,91,54,30.19,30.08,2,0,8,0.00
2013-7-31,68.0,66.3,65.6,66.9,66.2,65.3,100,99,96,30.08,30.04,2,0,8,0.09
2013-8-1,86.1,73.7,61.1,71.0,67.1,60.5,100,81,54,29.95,29.88,3,1,7,0.00
2013-8-2,85.9,70.2,58.0,71.5,64.9,58.0,100,85,53,29.97,29.91,4,0,10,0.00
2013-8-3,83.3,72.2,64.7,76.2,70.5,64.7,100,95,73,29.98,29.91,2,0,4,0.28
2013-8-4,81.8,67.8,57.6,68.3,62.1,57.6,100,84,49,30.08,29.98,3,1,6,0.01
2013-8-5,83.8,67.5,56.2,68.4,61.6,56.2,100,84,45,30.08,29.93,3,0,4,0.00
2013-8-6,84.7,71.7,63.0,75.5,68.0,62.7,100,89,66,29.94,29.87,2,0,4,0.00
2013-8-7,86.4,75.2,66.3,79.4,73.3,66.3,100,94,76,29.90,29.82,3,0,6,0.01
2013-8-8,88.9,77.0,69.4,80.7,75.0,69.4,100,94,69,29.90,29.83,2,0,4,0.07
2013-8-9,86.0,75.4,69.3,79.9,73.7,69.2,100,95,76,29.98,29.85,2,0,4,1.36
2013-8-10,86.8,75.8,69.9,76.8,73.1,69.9,100,92,65,30.06,29.97,2,0,3,0.02
2013-8-11,89.9,76.8,67.9,80.5,73.6,66.7,99,91,61,30.04,29.96,2,0,3,0.15
2013-8-12,87.7,75.1,65.4,76.5,70.4,63.6,96,86,62,30.03,29.82,3,0,7,0.01
2013-8-13,81.9,73.3,59.6,71.7,66.7,54.8,90,80,58,30.00,29.80,3,0,6,0.00
2013-8-14,74.9,62.0,52.1,57.4,52.9,47.1,89,74,47,30.13,30.00,2,0,4,0.00
2013-8-15,77.7,62.8,52.1,62.6,53.9,46.1,85,74,50,30.14,30.03,2,0,4,0.00
2013-8-16,81.8,66.3,54.7,65.2,55.8,47.3,83,70,48,30.11,30.05,2,0,5,0.00
2013-8-17,86.9,69.1,57.1,68.9,56.6,45.8,78,65,44,30.13,30.06,2,0,3,0.00
2013-8-18,85.5,70.7,60.2,70.1,52.1,34.4,69,52,31,30.13,30.04,2,0,4,0.00
2013-8-19,88.6,71.9,63.3,69.7,39.4,4.6,64,34,9,30.10,30.00,2,0,2,0.01
2013-8-20,89.3,72.5,61.8,69.7,8.8,-40.2,57,20,1,30.13,30.03,2,0,4,0.00
2013-8-21,85.7,73.9,64.7,56.7,-20.6,-38.4,39,5,1,30.12,30.01,2,0,4,0.11
2013-8-22,77.1,73.5,71.7,-30.9,-33.1,-34.2,1,1,1,30.01,29.98,0,0,1,0.03
2013-8-23,72.1,70.6,67.7,-33.9,-34.9,-36.6,1,1,1,30.05,29.99,0,0,3,0.08
2013-8-24,89.8,79.3,64.3,67.7,28.3,-38.7,52,29,1,30.21,30.15,2,0,5,0.01
2013-8-25,90.3,70.2,59.7,66.6,-9.2,-41.5,51,13,1,30.30,30.17,2,0,3,0.00
2013-8-26,91.1,74.0,61.0,68.7,-13.1,-40.7,48,9,1,30.22,30.03,3,0,4,0.00
2013-8-27,91.7,81.4,68.5,59.3,-8.7,-36.2,34,7,1,30.04,29.91,3,1,5,0.00
2013-8-28,79.8,74.0,72.6,-29.3,-32.8,-33.6,1,1,1,29.93,29.88,1,0,2,0.01
2013-8-29,88.6,79.9,69.3,60.8,-4.1,-35.8,41,9,1,29.98,29.93,1,0,5,0.01
2013-8-30,92.5,76.7,66.9,69.1,-10.3,-37.1,47,10,1,29.95,29.79,3,0,6,0.00
2013-8-31,93.4,76.1,69.0,62.6,-19.7,-35.8,37,5,1,29.86,29.69,6,1,6,1.22
2013-9-1,88.3,75.5,68.0,42.5,-25.6,-36.4,21,2,1,29.80,29.71,3,0,5,0.15
2013-9-2,91.2,77.1,67.0,62.8,-20.1,-37.1,39,4,1,29.83,29.73,4,1,5,0.00
2013-9-3,78.4,66.7,59.1,56.5,-14.8,-41.9,48,11,1,30.03,29.83,3,1,6,0.00
2013-9-4,83.4,67.2,56.5,59.3,-15.7,-43.5,45,10,1,30.12,30.03,3,0,6,0.01
2013-9-5,88.1,70.8,59.1,63.5,-15.5,-41.9,45,10,1,30.15,30.07,2,0,3,0.00
2013-9-6,84.2,70.8,58.6,59.1,4.4,-42.2,46,19,1,30.20,30.06,2,0,3,0.00
2013-9-7,87.9,70.1,55.3,60.6,-17.2,-44.2,41,8,1,30.07,29.91,3,0,8,0.00
2013-9-8,92.0,76.5,65.5,65.6,-12.6,-37.9,42,9,1,29.95,29.87,2,0,4,0.00
2013-9-9,93.3,77.3,65.7,67.9,-11.1,-37.8,44,9,1,29.99,29.91,4,1,8,0.00
2013-9-10,94.8,80.2,70.9,59.9,-15.9,-34.7,32,5,1,30.09,29.98,4,1,6,0.00
2013-9-11,85.0,72.9,69.4,-26.2,-33.5,-35.6,1,1,1,30.12,29.98,2,0,3,0.00
2013-9-12,82.8,73.6,63.9,-27.6,-33.0,-38.9,1,1,1,29.98,29.83,3,0,5,0.11
2013-9-13,68.7,60.7,48.8,46.3,-14.1,-48.2,45,14,1,30.05,29.86,3,0,8,0.00
2013-9-14,73.1,56.0,45.9,49.1,-21.2,-50.0,44,12,1,30.15,30.05,2,0,4,0.00
2013-9-15,80.2,70.0,47.6,54.8,1.9,-48.9,43,17,1,30.13,29.99,4,1,7,0.00
2013-9-16,75.3,67.3,59.0,32.5,-30.8,-41.9,22,2,1,30.20,30.13,2,0,4,0.07
2013-9-17,78.5,67.0,49.6,53.7,-7.0,-47.7,43,14,1,30.29,30.12,3,1,7,0.00
2013-9-18,80.3,70.7,56.8,-7.6,-34.3,-43.3,3,1,1,30.13,30.03,2,0,3,0.00
2013-9-19,82.4,72.4,64.3,-27.7,-33.8,-38.7,1,1,1,30.06,29.94,3,1,6,0.00
2013-9-20,71.2,66.4,62.7,-34.5,-37.4,-39.7,1,1,1,29.97,29.75,1,0,2,0.37
2013-9-21,74.4,66.3,55.3,49.8,-35.0,-44.2,43,2,1,29.82,29.66,3,0,7,0.00